Lady Breanna — ZCFR — position and weather

sailwx.info

Track history (hours):
 
Tides and Currents Weather Stations Pressure Air Temp Water Temp Dewpoint Dewpoint Depression Visibility Wind Speed Wind Dir Waves Ship Positions

Lady Breanna

Last reported at 2017-Dec-11 14:55 UTC. Time now 2017-Dec-11 15:04 UTC.
Position N 26°04' W 080°08'.

Length 32 m.

Type: Pleasure craft. MMSI: 319080900.

Date/timePositionNaut miles runAvg speedWind from/ knotsBaromVisibWave heightAir tempDewpointWater temp
2017-Dec-11 14:55N 26°04' W 080°08'0 0.0
2017-Dec-11 14:19N 26°04' W 080°08'0 0.0
2017-Dec-11 13:49N 26°04' W 080°08'0 0.0
2017-Dec-11 13:19N 26°04' W 080°08'0 0.0
2017-Dec-11 12:58N 26°04' W 080°08'0 0.0
2017-Dec-11 12:16N 26°04' W 080°08'0 0.0
2017-Dec-11 11:58N 26°04' W 080°08'0 0.0
2017-Dec-11 11:28N 26°04' W 080°08'0 0.0
2017-Dec-11 10:58N 26°04' W 080°08'0 0.0
2017-Dec-11 10:27N 26°04' W 080°08'0 0.0
2017-Dec-11 09:54N 26°04' W 080°08'0 0.0
2017-Dec-11 09:24N 26°04' W 080°08'0 0.0
2017-Dec-11 08:51N 26°04' W 080°08'0 0.0
2017-Dec-11 08:21N 26°04' W 080°08'0 0.0
2017-Dec-11 08:00N 26°04' W 080°08'0 0.0
2017-Dec-11 07:30N 26°04' W 080°08'0 0.0
2017-Dec-11 07:00N 26°04' W 080°08'0 0.0
2017-Dec-11 06:30N 26°04' W 080°08'0 0.0
2017-Dec-11 06:00N 26°04' W 080°08'0 0.0
2017-Dec-11 05:29N 26°04' W 080°08'0 0.0
2017-Dec-11 04:56N 26°04' W 080°08'0 0.0
2017-Dec-11 04:23N 26°04' W 080°08'0 0.0
2017-Dec-11 03:53N 26°04' W 080°08'0 0.0
2017-Dec-11 03:23N 26°04' W 080°08'0 0.0
2017-Dec-11 02:34N 26°04' W 080°08'0 2.3
2017-Dec-11 02:29N 26°04' W 080°08'3 5.3
2017-Dec-11 01:59N 26°06' W 080°07'1 1.7
2017-Dec-11 01:28N 26°07' W 080°07'2 3.0
2017-Dec-11 00:53N 26°08' W 080°06'1 1.1
2017-Dec-11 00:25N 26°08' W 080°07'1 2.8
2017-Dec-11 00:00N 26°07' W 080°07'3 5.6
2017-Dec-10 23:30N 26°04' W 080°07'1 1.0
2017-Dec-10 22:03N 26°04' W 080°08'0 0.0
2017-Dec-10 21:57N 26°04' W 080°08'0 0.0
2017-Dec-10 21:29N 26°04' W 080°08'0 0.0
2017-Dec-10 20:59N 26°04' W 080°08'0 0.0
2017-Dec-10 20:29N 26°04' W 080°08'0 0.0
2017-Dec-10 19:41N 26°04' W 080°08'0 0.0
2017-Dec-10 19:26N 26°04' W 080°08'0 0.0
2017-Dec-10 18:53N 26°04' W 080°08'0 0.0
2017-Dec-10 18:23N 26°04' W 080°08'0 0.0
2017-Dec-10 17:50N 26°04' W 080°08'0 0.0
2017-Dec-10 17:17N 26°04' W 080°08'0 0.0
2017-Dec-10 16:59N 26°04' W 080°08'0 0.0
2017-Dec-10 16:28N 26°04' W 080°08'0 0.0
2017-Dec-10 15:58N 26°04' W 080°08'0 0.0
2017-Dec-10 15:28N 26°04' W 080°08'0 0.0
2017-Dec-10 14:58N 26°04' W 080°08'0 0.0
2017-Dec-10 14:22N 26°04' W 080°08'0 0.0
2017-Dec-10 13:52N 26°04' W 080°08'0 0.0
2017-Dec-10 13:22N 26°04' W 080°08'0 0.0
2017-Dec-10 13:00N 26°04' W 080°08'0 0.0
2017-Dec-10 12:30N 26°04' W 080°08'0 0.0
2017-Dec-10 11:57N 26°04' W 080°08'0 0.0
2017-Dec-10 11:27N 26°04' W 080°08'0 0.0
2017-Dec-10 10:57N 26°04' W 080°08'0 0.0
2017-Dec-10 10:27N 26°04' W 080°08'0 0.0
2017-Dec-10 09:39N 26°04' W 080°08'0 0.0
2017-Dec-10 09:24N 26°04' W 080°08'0 0.0
2017-Dec-10 08:35N 26°04' W 080°08'0 0.0
2017-Dec-10 08:29N 26°04' W 080°08'0 0.0
2017-Dec-10 07:59N 26°04' W 080°08'0 0.0
2017-Dec-10 07:29N 26°04' W 080°08'0 0.0
2017-Dec-10 06:59N 26°04' W 080°08'0 0.0
2017-Dec-10 06:29N 26°04' W 080°08'0 0.0
2017-Dec-10 05:56N 26°04' W 080°08'0 0.0
2017-Dec-10 05:23N 26°04' W 080°08'0 0.0
2017-Dec-10 04:52N 26°04' W 080°08'0 0.0
2017-Dec-10 04:22N 26°04' W 080°08'0 0.0
2017-Dec-10 03:46N 26°04' W 080°08'0 0.0
2017-Dec-10 03:19N 26°04' W 080°08'0 0.0
2017-Dec-10 02:46N 26°04' W 080°08'0 0.0
2017-Dec-10 02:16N 26°04' W 080°08'0 0.0
2017-Dec-10 01:58N 26°04' W 080°08'0 0.0
2017-Dec-10 01:28N 26°04' W 080°08'0 0.0
2017-Dec-10 00:54N 26°04' W 080°08'0 0.0
2017-Dec-10 00:21N 26°04' W 080°08'0 0.0
2017-Dec-09 23:48N 26°04' W 080°08'0 0.0
2017-Dec-09 23:21N 26°04' W 080°08'0 0.0
2017-Dec-09 22:45N 26°04' W 080°08'0 0.0
2017-Dec-09 22:30N 26°04' W 080°08'0 0.0
2017-Dec-09 22:00N 26°04' W 080°08'0 0.0
2017-Dec-09 21:30N 26°04' W 080°08'0 0.0
2017-Dec-09 21:00N 26°04' W 080°08'0 0.0
2017-Dec-09 20:30N 26°04' W 080°08'0 0.0
2017-Dec-09 19:53N 26°04' W 080°08'0 0.0
2017-Dec-09 19:26N 26°04' W 080°08'0 0.0
2017-Dec-09 18:56N 26°04' W 080°08'0 0.0
2017-Dec-09 18:23N 26°04' W 080°08'0 0.0
2017-Dec-09 17:53N 26°04' W 080°08'0 0.0
2017-Dec-09 17:17N 26°04' W 080°08'0 0.0
2017-Dec-09 16:50N 26°04' W 080°08'0 0.0
2017-Dec-09 16:20N 26°04' W 080°08'0 0.0
2017-Dec-09 15:59N 26°04' W 080°08'0 0.0
2017-Dec-09 15:29N 26°04' W 080°08'0 0.0
2017-Dec-09 14:58N 26°04' W 080°08'0 0.0
2017-Dec-09 14:25N 26°04' W 080°08'0 0.0
2017-Dec-09 13:58N 26°04' W 080°08'0 0.0
2017-Dec-09 13:28N 26°04' W 080°08'0 0.0
2017-Dec-09 12:52N 26°04' W 080°08'0 0.0
2017-Dec-09 12:19N 26°04' W 080°08'0 0.0
2017-Dec-09 11:49N 26°04' W 080°08'0 0.0
2017-Dec-09 11:19N 26°04' W 080°08'0 0.0
2017-Dec-09 11:00N 26°04' W 080°08'0 0.0
2017-Dec-09 10:30N 26°04' W 080°08'0 0.0
2017-Dec-09 10:00N 26°04' W 080°08'0 0.0
2017-Dec-09 09:30N 26°04' W 080°08'0 0.0
2017-Dec-09 08:57N 26°04' W 080°08'0 0.0
2017-Dec-09 08:27N 26°04' W 080°08'0 0.0
2017-Dec-09 07:57N 26°04' W 080°08'0 0.0
2017-Dec-09 07:24N 26°04' W 080°08'0 0.0
2017-Dec-09 06:54N 26°04' W 080°08'0 0.0
2017-Dec-09 06:24N 26°04' W 080°08'0 0.0
2017-Dec-09 05:54N 26°04' W 080°08'0 0.0
2017-Dec-09 05:05N 26°04' W 080°08'0 0.0
2017-Dec-09 04:59N 26°04' W 080°08'0 0.0
2017-Dec-09 04:29N 26°04' W 080°08'0 0.0
2017-Dec-09 03:59N 26°04' W 080°08'0 0.0
2017-Dec-09 03:29N 26°04' W 080°08'0 0.0
2017-Dec-09 02:59N 26°04' W 080°08'0 0.0
2017-Dec-09 02:29N 26°04' W 080°08'0 0.0
2017-Dec-09 01:59N 26°04' W 080°08'0 0.0
2017-Dec-09 01:08N 26°04' W 080°08'0 0.0
2017-Dec-09 00:56N 26°04' W 080°08'0 0.0
2017-Dec-09 00:22N 26°04' W 080°08'0 0.0
2017-Dec-08 23:52N 26°04' W 080°08'0 0.0
2017-Dec-08 23:19N 26°04' W 080°08'0 0.0
2017-Dec-08 22:58N 26°04' W 080°08'0 0.0
2017-Dec-08 22:28N 26°04' W 080°08'0 0.0
2017-Dec-08 21:58N 26°04' W 080°08'0 0.0
2017-Dec-08 21:28N 26°04' W 080°08'0 0.0
2017-Dec-08 20:58N 26°04' W 080°08'0 0.0
2017-Dec-08 20:25N 26°04' W 080°08'0 0.0
2017-Dec-08 19:57N 26°04' W 080°08'0 0.0
2017-Dec-08 19:24N 26°04' W 080°08'0 0.0
2017-Dec-08 18:54N 26°04' W 080°08'0 0.0
2017-Dec-08 18:21N 26°04' W 080°08'0 0.0
2017-Dec-08 17:51N 26°04' W 080°08'0 0.0
2017-Dec-08 17:21N 26°04' W 080°08'0 0.0
2017-Dec-08 16:48N 26°04' W 080°08'0 0.0
2017-Dec-08 16:18N 26°04' W 080°08'0 0.0
2017-Dec-08 16:00N 26°04' W 080°08'0 0.0
2017-Dec-08 15:29N 26°04' W 080°08'0 0.0
2017-Dec-08 14:56N 26°04' W 080°08'0 0.0
2017-Dec-08 14:26N 26°04' W 080°08'0 0.0
2017-Dec-08 13:38N 26°04' W 080°08'0 0.0
2017-Dec-08 13:17N 26°04' W 080°08'0 0.0
2017-Dec-08 12:50N 26°04' W 080°08'0 0.0
2017-Dec-08 12:20N 26°04' W 080°08'0 0.0
2017-Dec-08 11:59N 26°04' W 080°08'0 0.0
2017-Dec-08 11:29N 26°04' W 080°08'0 0.0
2017-Dec-08 10:58N 26°04' W 080°08'0 0.0
2017-Dec-08 10:28N 26°04' W 080°08'0 0.0
2017-Dec-08 09:58N 26°04' W 080°08'0 0.0
2017-Dec-08 09:28N 26°04' W 080°08'0 0.0
2017-Dec-08 08:58N 26°04' W 080°08'0 0.0
2017-Dec-08 08:25N 26°04' W 080°08'0 0.0
2017-Dec-08 07:49N 26°04' W 080°08'0 0.0
2017-Dec-08 07:22N 26°04' W 080°08'0 0.0
2017-Dec-08 06:52N 26°04' W 080°08'0 0.0
2017-Dec-08 06:16N 26°04' W 080°08'0 0.0
2017-Dec-08 06:01N 26°04' W 080°08'0 0.0
2017-Dec-08 05:30N 26°04' W 080°08'0 0.0
2017-Dec-08 04:57N 26°04' W 080°08'0 0.0
2017-Dec-08 04:30N 26°04' W 080°08'0 0.0
2017-Dec-08 04:00N 26°04' W 080°08'0 0.0
2017-Dec-08 03:30N 26°04' W 080°08'0 0.0
2017-Dec-08 02:57N 26°04' W 080°08'0 0.0
2017-Dec-08 02:27N 26°04' W 080°08'0 0.0
2017-Dec-08 01:54N 26°04' W 080°08'0 0.0
2017-Dec-08 01:24N 26°04' W 080°08'0 0.0
2017-Dec-08 00:54N 26°04' W 080°08'0 0.0
2017-Dec-08 00:17N 26°04' W 080°08'0 0.0
2017-Dec-07 23:50N 26°04' W 080°08'0 0.0
2017-Dec-07 23:29N 26°04' W 080°08'0 0.0
2017-Dec-07 22:44N 26°04' W 080°08'0 0.0
2017-Dec-07 22:29N 26°04' W 080°08'0 0.0
2017-Dec-07 21:59N 26°04' W 080°08'0 0.0
2017-Dec-07 21:26N 26°04' W 080°08'0 0.0
2017-Dec-07 20:59N 26°04' W 080°08'0 0.0
2017-Dec-07 20:26N 26°04' W 080°08'0 0.0
2017-Dec-07 19:55N 26°04' W 080°08'0 0.0
2017-Dec-07 19:22N 26°04' W 080°08'0 0.0
2017-Dec-07 18:52N 26°04' W 080°08'0 0.0
2017-Dec-07 18:19N 26°04' W 080°08'0 0.0
2017-Dec-07 17:49N 26°04' W 080°08'0 0.4
2017-Dec-07 17:30N 26°04' W 080°08'0 0.3
2017-Dec-07 17:00N 26°04' W 080°08'0 0.0
2017-Dec-07 16:27N 26°04' W 080°08'0 0.0
2017-Dec-07 16:00N 26°04' W 080°08'0 0.0
2017-Dec-07 15:27N 26°04' W 080°08'0 0.0
2017-Dec-07 14:57N 26°04' W 080°08'0 0.0
2017-Dec-07 14:27N 26°04' W 080°08'0 0.0
2017-Dec-07 13:51N 26°04' W 080°08'0 0.0
2017-Dec-07 13:24N 26°04' W 080°08'0 0.0
2017-Dec-07 12:54N 26°04' W 080°08'0 0.0
2017-Dec-07 12:20N 26°04' W 080°08'0 0.0
2017-Dec-07 11:59N 26°04' W 080°08'0 0.0
2017-Dec-07 11:29N 26°04' W 080°08'0 0.0
2017-Dec-07 10:59N 26°04' W 080°08'0 0.0
2017-Dec-07 10:29N 26°04' W 080°08'0 0.0
2017-Dec-07 09:59N 26°04' W 080°08'0 0.0
2017-Dec-07 09:29N 26°04' W 080°08'0 0.0
2017-Dec-07 08:59N 26°04' W 080°08'0 0.0
2017-Dec-07 08:29N 26°04' W 080°08'0 0.0
2017-Dec-07 07:56N 26°04' W 080°08'0 0.0
2017-Dec-07 07:26N 26°04' W 080°08'0 0.0
2017-Dec-07 06:49N 26°04' W 080°08'0 0.0
2017-Dec-07 06:22N 26°04' W 080°08'0 0.0
2017-Dec-07 05:52N 26°04' W 080°08'0 0.0
2017-Dec-07 05:16N 26°04' W 080°08'0 0.0
2017-Dec-07 04:58N 26°04' W 080°08'0 0.0
2017-Dec-07 04:16N 26°04' W 080°08'0 0.0
2017-Dec-07 03:58N 26°04' W 080°08'0 0.0
2017-Dec-07 03:28N 26°04' W 080°08'0 0.0
2017-Dec-07 02:58N 26°04' W 080°08'0 0.0
2017-Dec-07 02:27N 26°04' W 080°08'0 0.0
2017-Dec-07 01:54N 26°04' W 080°08'0 0.0
2017-Dec-07 01:21N 26°04' W 080°08'0 0.0
2017-Dec-07 01:00N 26°04' W 080°08'0 0.0
2017-Dec-07 00:15N 26°04' W 080°08'0 0.0
2017-Dec-07 00:00N 26°04' W 080°08'0 0.0
2017-Dec-06 23:30N 26°04' W 080°08'0 0.0
2017-Dec-06 22:57N 26°04' W 080°08'4 6.5
2017-Dec-06 22:23N 25°60' W 080°08'4 9.0
2017-Dec-06 21:59N 26°04' W 080°08'0 0.0
2017-Dec-06 21:26N 26°04' W 080°08'0 0.0
2017-Dec-06 20:56N 26°04' W 080°08'  
2017-Dec-04 10:29N 26°04' W 080°08'0 0.0
2017-Dec-04 09:59N 26°04' W 080°08'0 0.0
2017-Dec-04 09:29N 26°04' W 080°08'0 0.0
2017-Dec-04 08:56N 26°04' W 080°08'0 0.0
2017-Dec-04 08:26N 26°04' W 080°08'0 0.0
2017-Dec-04 07:53N 26°04' W 080°08'0 0.0
2017-Dec-04 07:26N 26°04' W 080°08'0 0.0
2017-Dec-04 06:56N 26°04' W 080°08'0 0.0
2017-Dec-04 06:26N 26°04' W 080°08'0 0.0
2017-Dec-04 05:56N 26°04' W 080°08'0 0.0
2017-Dec-04 05:26N 26°04' W 080°08'0 0.0
2017-Dec-04 04:53N 26°04' W 080°08'0 0.0
2017-Dec-04 04:23N 26°04' W 080°08'0 0.0
2017-Dec-04 03:52N 26°04' W 080°08'0 0.0
2017-Dec-04 03:22N 26°04' W 080°08'0 0.0
2017-Dec-04 02:49N 26°04' W 080°08'0 0.0
2017-Dec-04 02:19N 26°04' W 080°08'0 0.0
2017-Dec-04 01:46N 26°04' W 080°08'0 0.0
2017-Dec-04 01:19N 26°04' W 080°08'0 0.0
2017-Dec-04 00:58N 26°04' W 080°08'0 0.0
2017-Dec-04 00:28N 26°04' W 080°08'0 0.0
2017-Dec-03 23:58N 26°04' W 080°08'0 0.0
2017-Dec-03 23:28N 26°04' W 080°08'0 0.0
2017-Dec-03 22:58N 26°04' W 080°08'0 0.0
2017-Dec-03 22:25N 26°04' W 080°08'0 0.0
2017-Dec-03 21:58N 26°04' W 080°08'0 0.0
2017-Dec-03 21:28N 26°04' W 080°08'0 0.0
2017-Dec-03 20:58N 26°04' W 080°08'0 0.0
2017-Dec-03 20:27N 26°04' W 080°08'0 0.0
2017-Dec-03 19:57N 26°04' W 080°08'0 0.0
2017-Dec-03 19:24N 26°04' W 080°08'0 0.0
2017-Dec-03 18:57N 26°04' W 080°08'0 0.0
2017-Dec-03 18:21N 26°04' W 080°08'0 0.0
2017-Dec-03 17:54N 26°04' W 080°08'0 0.0
2017-Dec-03 17:21N 26°04' W 080°08'0 0.0
2017-Dec-03 16:54N 26°04' W 080°08'0 0.0
2017-Dec-03 16:24N 26°04' W 080°08'0 0.0
2017-Dec-03 15:54N 26°04' W 080°08'0 0.0
2017-Dec-03 15:21N 26°04' W 080°08'0 0.0
2017-Dec-03 14:54N 26°04' W 080°08'0 0.0
2017-Dec-03 14:24N 26°04' W 080°08'0 0.0
2017-Dec-03 13:54N 26°04' W 080°08'0 0.0
2017-Dec-03 13:24N 26°04' W 080°08'0 0.0
2017-Dec-03 12:54N 26°04' W 080°08'0 0.0
2017-Dec-03 12:24N 26°04' W 080°08'0 0.0
2017-Dec-03 11:54N 26°04' W 080°08'0 0.0
2017-Dec-03 11:21N 26°04' W 080°08'0 0.0
2017-Dec-03 10:47N 26°04' W 080°08'0 0.0
2017-Dec-03 10:20N 26°04' W 080°08'0 0.0
2017-Dec-03 09:47N 26°04' W 080°08'0 0.0
2017-Dec-03 09:29N 26°04' W 080°08'0 0.0
2017-Dec-03 08:59N 26°04' W 080°08'0 0.0
2017-Dec-03 08:29N 26°04' W 080°08'0 0.0
2017-Dec-03 07:47N 26°04' W 080°08'0 0.0
2017-Dec-03 07:29N 26°04' W 080°08'0 0.0
2017-Dec-03 06:59N 26°04' W 080°08'0 0.0
2017-Dec-03 06:29N 26°04' W 080°08'0 0.0
2017-Dec-03 05:59N 26°04' W 080°08'0 0.0
2017-Dec-03 05:29N 26°04' W 080°08'0 0.0
2017-Dec-03 04:59N 26°04' W 080°08'0 0.0
2017-Dec-03 04:29N 26°04' W 080°08'0 0.0
2017-Dec-03 03:59N 26°04' W 080°08'0 0.0
2017-Dec-03 03:29N 26°04' W 080°08'0 0.0
2017-Dec-03 02:59N 26°04' W 080°08'0 0.0
2017-Dec-03 02:29N 26°04' W 080°08'0 0.0
2017-Dec-03 01:59N 26°04' W 080°08'0 0.0
2017-Dec-03 01:28N 26°04' W 080°08'0 0.0
2017-Dec-03 00:55N 26°04' W 080°08'0 0.0
2017-Dec-03 00:28N 26°04' W 080°08'0 0.0
2017-Dec-02 23:58N 26°04' W 080°08'2 4.2
2017-Dec-02 23:25N 26°06' W 080°08'2 4.1
2017-Dec-02 22:52N 26°04' W 080°08'0 0.0
2017-Dec-02 22:28N 26°04' W 080°08'0 0.0
2017-Dec-02 21:40N 26°04' W 080°08'0 0.0
2017-Dec-02 21:25N 26°04' W 080°08'0 0.0
2017-Dec-02 20:55N 26°04' W 080°08'0 0.0
2017-Dec-02 20:25N 26°04' W 080°08'0 0.0
2017-Dec-02 19:55N 26°04' W 080°08'0 0.0
2017-Dec-02 19:25N 26°04' W 080°08'0 0.0
2017-Dec-02 18:55N 26°04' W 080°08'0 0.0
2017-Dec-02 18:22N 26°04' W 080°08'0 0.0
2017-Dec-02 17:52N 26°04' W 080°08'0 0.0
2017-Dec-02 17:07N 26°04' W 080°08'0 0.0
2017-Dec-02 16:52N 26°04' W 080°08'0 0.0
2017-Dec-02 16:07N 26°04' W 080°08'0 0.0
2017-Dec-02 15:49N 26°04' W 080°08'0 0.0
2017-Dec-02 15:21N 26°04' W 080°08'0 0.0
2017-Dec-02 14:51N 26°04' W 080°08'0 0.0
2017-Dec-02 14:21N 26°04' W 080°08'0 0.0
2017-Dec-02 13:48N 26°04' W 080°08'0 0.0
2017-Dec-02 13:21N 26°04' W 080°08'0 0.0
2017-Dec-02 13:00N 26°04' W 080°08'0 0.0
2017-Dec-02 12:21N 26°04' W 080°08'0 0.0
2017-Dec-02 11:51N 26°04' W 080°08'0 0.0
2017-Dec-02 11:15N 26°04' W 080°08'0 0.0
2017-Dec-02 11:00N 26°04' W 080°08'0 0.0
2017-Dec-02 10:30N 26°04' W 080°08'0 0.0
2017-Dec-02 10:00N 26°04' W 080°08'0 0.0
2017-Dec-02 09:30N 26°04' W 080°08'0 0.0
2017-Dec-02 09:00N 26°04' W 080°08'0 0.0
2017-Dec-02 08:30N 26°04' W 080°08'0 0.0
2017-Dec-02 07:57N 26°04' W 080°08'0 0.0
2017-Dec-02 07:30N 26°04' W 080°08'0 0.0
2017-Dec-02 07:00N 26°04' W 080°08'0 0.0
2017-Dec-02 06:30N 26°04' W 080°08'0 0.0
2017-Dec-02 05:56N 26°04' W 080°08'0 0.0
2017-Dec-02 05:29N 26°04' W 080°08'0 0.0
2017-Dec-02 04:56N 26°04' W 080°08'0 0.0
2017-Dec-02 04:29N 26°04' W 080°08'0 0.0
2017-Dec-02 03:59N 26°04' W 080°08'0 0.0
2017-Dec-02 03:26N 26°04' W 080°08'0 0.0
2017-Dec-02 02:56N 26°04' W 080°08'0 0.0
2017-Dec-02 02:26N 26°04' W 080°08'0 0.0
2017-Dec-02 01:56N 26°04' W 080°08'0 0.0
2017-Dec-02 01:26N 26°04' W 080°08'0 0.0
2017-Dec-02 00:56N 26°04' W 080°08'0 0.0
2017-Dec-02 00:26N 26°04' W 080°08'0 0.0
2017-Dec-01 23:53N 26°04' W 080°08'0 0.0
2017-Dec-01 23:23N 26°04' W 080°08'0 0.0
2017-Dec-01 22:53N 26°04' W 080°08'0 0.0
2017-Dec-01 22:23N 26°04' W 080°08'0 0.0
2017-Dec-01 21:53N 26°04' W 080°08'0 0.0
2017-Dec-01 21:22N 26°04' W 080°08'0 0.0
2017-Dec-01 20:52N 26°04' W 080°08'0 0.0
2017-Dec-01 20:19N 26°04' W 080°08'0 0.0
2017-Dec-01 19:49N 26°04' W 080°08'0 0.0
2017-Dec-01 19:19N 26°04' W 080°08'0 0.0
2017-Dec-01 18:46N 26°04' W 080°08'0 0.0
2017-Dec-01 18:16N 26°04' W 080°08'0 0.0
2017-Dec-01 17:58N 26°04' W 080°08'0 0.0
2017-Dec-01 17:28N 26°04' W 080°08'0 0.0
2017-Dec-01 16:58N 26°04' W 080°08'0 0.0
2017-Dec-01 16:28N 26°04' W 080°08'0 0.0
2017-Dec-01 15:46N 26°04' W 080°08'0 0.0
2017-Dec-01 15:28N 26°04' W 080°08'0 0.0
2017-Dec-01 14:58N 26°04' W 080°08'  
Track history (hours):
 
Tides and Currents Weather Stations Pressure Air Temp Water Temp Dewpoint Dewpoint Depression Visibility Wind Speed Wind Dir Waves Ship Positions

Lady Breanna

Last reported at 2017-Dec-11 14:55 UTC. Time now 2017-Dec-11 15:04 UTC.
Position N 26°04' W 080°08'.

Length 32 m.

Type: Pleasure craft. MMSI: 319080900.

Date/timePositionNaut miles runAvg speedWind from/ knotsBaromVisibWave heightAir tempDewpointWater temp
2017-Dec-11 14:55N 26°04' W 080°08'0 0.0
2017-Dec-11 14:19N 26°04' W 080°08'0 0.0
2017-Dec-11 13:49N 26°04' W 080°08'0 0.0
2017-Dec-11 13:19N 26°04' W 080°08'0 0.0
2017-Dec-11 12:58N 26°04' W 080°08'0 0.0
2017-Dec-11 12:16N 26°04' W 080°08'0 0.0
2017-Dec-11 11:58N 26°04' W 080°08'0 0.0
2017-Dec-11 11:28N 26°04' W 080°08'0 0.0
2017-Dec-11 10:58N 26°04' W 080°08'0 0.0
2017-Dec-11 10:27N 26°04' W 080°08'0 0.0
2017-Dec-11 09:54N 26°04' W 080°08'0 0.0
2017-Dec-11 09:24N 26°04' W 080°08'0 0.0
2017-Dec-11 08:51N 26°04' W 080°08'0 0.0
2017-Dec-11 08:21N 26°04' W 080°08'0 0.0
2017-Dec-11 08:00N 26°04' W 080°08'0 0.0
2017-Dec-11 07:30N 26°04' W 080°08'0 0.0
2017-Dec-11 07:00N 26°04' W 080°08'0 0.0
2017-Dec-11 06:30N 26°04' W 080°08'0 0.0
2017-Dec-11 06:00N 26°04' W 080°08'0 0.0
2017-Dec-11 05:29N 26°04' W 080°08'0 0.0
2017-Dec-11 04:56N 26°04' W 080°08'0 0.0
2017-Dec-11 04:23N 26°04' W 080°08'0 0.0
2017-Dec-11 03:53N 26°04' W 080°08'0 0.0
2017-Dec-11 03:23N 26°04' W 080°08'0 0.0
2017-Dec-11 02:34N 26°04' W 080°08'0 2.3
2017-Dec-11 02:29N 26°04' W 080°08'3 5.3
2017-Dec-11 01:59N 26°06' W 080°07'1 1.7
2017-Dec-11 01:28N 26°07' W 080°07'2 3.0
2017-Dec-11 00:53N 26°08' W 080°06'1 1.1
2017-Dec-11 00:25N 26°08' W 080°07'1 2.8
2017-Dec-11 00:00N 26°07' W 080°07'3 5.6
2017-Dec-10 23:30N 26°04' W 080°07'1 1.0
2017-Dec-10 22:03N 26°04' W 080°08'0 0.0
2017-Dec-10 21:57N 26°04' W 080°08'0 0.0
2017-Dec-10 21:29N 26°04' W 080°08'0 0.0
2017-Dec-10 20:59N 26°04' W 080°08'0 0.0
2017-Dec-10 20:29N 26°04' W 080°08'0 0.0
2017-Dec-10 19:41N 26°04' W 080°08'0 0.0
2017-Dec-10 19:26N 26°04' W 080°08'0 0.0
2017-Dec-10 18:53N 26°04' W 080°08'0 0.0
2017-Dec-10 18:23N 26°04' W 080°08'0 0.0
2017-Dec-10 17:50N 26°04' W 080°08'0 0.0
2017-Dec-10 17:17N 26°04' W 080°08'0 0.0
2017-Dec-10 16:59N 26°04' W 080°08'0 0.0
2017-Dec-10 16:28N 26°04' W 080°08'0 0.0
2017-Dec-10 15:58N 26°04' W 080°08'0 0.0
2017-Dec-10 15:28N 26°04' W 080°08'0 0.0
2017-Dec-10 14:58N 26°04' W 080°08'0 0.0
2017-Dec-10 14:22N 26°04' W 080°08'0 0.0
2017-Dec-10 13:52N 26°04' W 080°08'0 0.0
2017-Dec-10 13:22N 26°04' W 080°08'0 0.0
2017-Dec-10 13:00N 26°04' W 080°08'0 0.0
2017-Dec-10 12:30N 26°04' W 080°08'0 0.0
2017-Dec-10 11:57N 26°04' W 080°08'0 0.0
2017-Dec-10 11:27N 26°04' W 080°08'0 0.0
2017-Dec-10 10:57N 26°04' W 080°08'0 0.0
2017-Dec-10 10:27N 26°04' W 080°08'0 0.0
2017-Dec-10 09:39N 26°04' W 080°08'0 0.0
2017-Dec-10 09:24N 26°04' W 080°08'0 0.0
2017-Dec-10 08:35N 26°04' W 080°08'0 0.0
2017-Dec-10 08:29N 26°04' W 080°08'0 0.0
2017-Dec-10 07:59N 26°04' W 080°08'0 0.0
2017-Dec-10 07:29N 26°04' W 080°08'0 0.0
2017-Dec-10 06:59N 26°04' W 080°08'0 0.0
2017-Dec-10 06:29N 26°04' W 080°08'0 0.0
2017-Dec-10 05:56N 26°04' W 080°08'0 0.0
2017-Dec-10 05:23N 26°04' W 080°08'0 0.0
2017-Dec-10 04:52N 26°04' W 080°08'0 0.0
2017-Dec-10 04:22N 26°04' W 080°08'0 0.0
2017-Dec-10 03:46N 26°04' W 080°08'0 0.0
2017-Dec-10 03:19N 26°04' W 080°08'0 0.0
2017-Dec-10 02:46N 26°04' W 080°08'0 0.0
2017-Dec-10 02:16N 26°04' W 080°08'0 0.0
2017-Dec-10 01:58N 26°04' W 080°08'0 0.0
2017-Dec-10 01:28N 26°04' W 080°08'0 0.0
2017-Dec-10 00:54N 26°04' W 080°08'0 0.0
2017-Dec-10 00:21N 26°04' W 080°08'0 0.0
2017-Dec-09 23:48N 26°04' W 080°08'0 0.0
2017-Dec-09 23:21N 26°04' W 080°08'0 0.0
2017-Dec-09 22:45N 26°04' W 080°08'0 0.0
2017-Dec-09 22:30N 26°04' W 080°08'0 0.0
2017-Dec-09 22:00N 26°04' W 080°08'0 0.0
2017-Dec-09 21:30N 26°04' W 080°08'0 0.0
2017-Dec-09 21:00N 26°04' W 080°08'0 0.0
2017-Dec-09 20:30N 26°04' W 080°08'0 0.0
2017-Dec-09 19:53N 26°04' W 080°08'0 0.0
2017-Dec-09 19:26N 26°04' W 080°08'0 0.0
2017-Dec-09 18:56N 26°04' W 080°08'0 0.0
2017-Dec-09 18:23N 26°04' W 080°08'0 0.0
2017-Dec-09 17:53N 26°04' W 080°08'0 0.0
2017-Dec-09 17:17N 26°04' W 080°08'0 0.0
2017-Dec-09 16:50N 26°04' W 080°08'0 0.0
2017-Dec-09 16:20N 26°04' W 080°08'0 0.0
2017-Dec-09 15:59N 26°04' W 080°08'0 0.0
2017-Dec-09 15:29N 26°04' W 080°08'0 0.0
2017-Dec-09 14:58N 26°04' W 080°08'0 0.0
2017-Dec-09 14:25N 26°04' W 080°08'0 0.0
2017-Dec-09 13:58N 26°04' W 080°08'0 0.0
2017-Dec-09 13:28N 26°04' W 080°08'0 0.0
2017-Dec-09 12:52N 26°04' W 080°08'0 0.0
2017-Dec-09 12:19N 26°04' W 080°08'0 0.0
2017-Dec-09 11:49N 26°04' W 080°08'0 0.0
2017-Dec-09 11:19N 26°04' W 080°08'0 0.0
2017-Dec-09 11:00N 26°04' W 080°08'0 0.0
2017-Dec-09 10:30N 26°04' W 080°08'0 0.0
2017-Dec-09 10:00N 26°04' W 080°08'0 0.0
2017-Dec-09 09:30N 26°04' W 080°08'0 0.0
2017-Dec-09 08:57N 26°04' W 080°08'0 0.0
2017-Dec-09 08:27N 26°04' W 080°08'0 0.0
2017-Dec-09 07:57N 26°04' W 080°08'0 0.0
2017-Dec-09 07:24N 26°04' W 080°08'0 0.0
2017-Dec-09 06:54N 26°04' W 080°08'0 0.0
2017-Dec-09 06:24N 26°04' W 080°08'0 0.0
2017-Dec-09 05:54N 26°04' W 080°08'0 0.0
2017-Dec-09 05:05N 26°04' W 080°08'0 0.0
2017-Dec-09 04:59N 26°04' W 080°08'0 0.0
2017-Dec-09 04:29N 26°04' W 080°08'0 0.0
2017-Dec-09 03:59N 26°04' W 080°08'0 0.0
2017-Dec-09 03:29N 26°04' W 080°08'0 0.0
2017-Dec-09 02:59N 26°04' W 080°08'0 0.0
2017-Dec-09 02:29N 26°04' W 080°08'0 0.0
2017-Dec-09 01:59N 26°04' W 080°08'0 0.0
2017-Dec-09 01:08N 26°04' W 080°08'0 0.0
2017-Dec-09 00:56N 26°04' W 080°08'0 0.0
2017-Dec-09 00:22N 26°04' W 080°08'0 0.0
2017-Dec-08 23:52N 26°04' W 080°08'0 0.0
2017-Dec-08 23:19N 26°04' W 080°08'0 0.0
2017-Dec-08 22:58N 26°04' W 080°08'0 0.0
2017-Dec-08 22:28N 26°04' W 080°08'0 0.0
2017-Dec-08 21:58N 26°04' W 080°08'0 0.0
2017-Dec-08 21:28N 26°04' W 080°08'0 0.0
2017-Dec-08 20:58N 26°04' W 080°08'0 0.0
2017-Dec-08 20:25N 26°04' W 080°08'0 0.0
2017-Dec-08 19:57N 26°04' W 080°08'0 0.0
2017-Dec-08 19:24N 26°04' W 080°08'0 0.0
2017-Dec-08 18:54N 26°04' W 080°08'0 0.0
2017-Dec-08 18:21N 26°04' W 080°08'0 0.0
2017-Dec-08 17:51N 26°04' W 080°08'0 0.0
2017-Dec-08 17:21N 26°04' W 080°08'0 0.0
2017-Dec-08 16:48N 26°04' W 080°08'0 0.0
2017-Dec-08 16:18N 26°04' W 080°08'0 0.0
2017-Dec-08 16:00N 26°04' W 080°08'0 0.0
2017-Dec-08 15:29N 26°04' W 080°08'0 0.0
2017-Dec-08 14:56N 26°04' W 080°08'0 0.0
2017-Dec-08 14:26N 26°04' W 080°08'0 0.0
2017-Dec-08 13:38N 26°04' W 080°08'0 0.0
2017-Dec-08 13:17N 26°04' W 080°08'0 0.0
2017-Dec-08 12:50N 26°04' W 080°08'0 0.0
2017-Dec-08 12:20N 26°04' W 080°08'0 0.0
2017-Dec-08 11:59N 26°04' W 080°08'0 0.0
2017-Dec-08 11:29N 26°04' W 080°08'0 0.0
2017-Dec-08 10:58N 26°04' W 080°08'0 0.0
2017-Dec-08 10:28N 26°04' W 080°08'0 0.0
2017-Dec-08 09:58N 26°04' W 080°08'0 0.0
2017-Dec-08 09:28N 26°04' W 080°08'0 0.0
2017-Dec-08 08:58N 26°04' W 080°08'0 0.0
2017-Dec-08 08:25N 26°04' W 080°08'0 0.0
2017-Dec-08 07:49N 26°04' W 080°08'0 0.0
2017-Dec-08 07:22N 26°04' W 080°08'0 0.0
2017-Dec-08 06:52N 26°04' W 080°08'0 0.0
2017-Dec-08 06:16N 26°04' W 080°08'0 0.0
2017-Dec-08 06:01N 26°04' W 080°08'0 0.0
2017-Dec-08 05:30N 26°04' W 080°08'0 0.0
2017-Dec-08 04:57N 26°04' W 080°08'0 0.0
2017-Dec-08 04:30N 26°04' W 080°08'0 0.0
2017-Dec-08 04:00N 26°04' W 080°08'0 0.0
2017-Dec-08 03:30N 26°04' W 080°08'0 0.0
2017-Dec-08 02:57N 26°04' W 080°08'0 0.0
2017-Dec-08 02:27N 26°04' W 080°08'0 0.0
2017-Dec-08 01:54N 26°04' W 080°08'0 0.0
2017-Dec-08 01:24N 26°04' W 080°08'0 0.0
2017-Dec-08 00:54N 26°04' W 080°08'0 0.0
2017-Dec-08 00:17N 26°04' W 080°08'0 0.0
2017-Dec-07 23:50N 26°04' W 080°08'0 0.0
2017-Dec-07 23:29N 26°04' W 080°08'0 0.0
2017-Dec-07 22:44N 26°04' W 080°08'0 0.0
2017-Dec-07 22:29N 26°04' W 080°08'0 0.0
2017-Dec-07 21:59N 26°04' W 080°08'0 0.0
2017-Dec-07 21:26N 26°04' W 080°08'0 0.0
2017-Dec-07 20:59N 26°04' W 080°08'0 0.0
2017-Dec-07 20:26N 26°04' W 080°08'0 0.0
2017-Dec-07 19:55N 26°04' W 080°08'0 0.0
2017-Dec-07 19:22N 26°04' W 080°08'0 0.0
2017-Dec-07 18:52N 26°04' W 080°08'0 0.0
2017-Dec-07 18:19N 26°04' W 080°08'0 0.0
2017-Dec-07 17:49N 26°04' W 080°08'0 0.4
2017-Dec-07 17:30N 26°04' W 080°08'0 0.3
2017-Dec-07 17:00N 26°04' W 080°08'0 0.0
2017-Dec-07 16:27N 26°04' W 080°08'0 0.0
2017-Dec-07 16:00N 26°04' W 080°08'0 0.0
2017-Dec-07 15:27N 26°04' W 080°08'0 0.0
2017-Dec-07 14:57N 26°04' W 080°08'0 0.0
2017-Dec-07 14:27N 26°04' W 080°08'0 0.0
2017-Dec-07 13:51N 26°04' W 080°08'0 0.0
2017-Dec-07 13:24N 26°04' W 080°08'0 0.0
2017-Dec-07 12:54N 26°04' W 080°08'0 0.0
2017-Dec-07 12:20N 26°04' W 080°08'0 0.0
2017-Dec-07 11:59N 26°04' W 080°08'0 0.0
2017-Dec-07 11:29N 26°04' W 080°08'0 0.0
2017-Dec-07 10:59N 26°04' W 080°08'0 0.0
2017-Dec-07 10:29N 26°04' W 080°08'0 0.0
2017-Dec-07 09:59N 26°04' W 080°08'0 0.0
2017-Dec-07 09:29N 26°04' W 080°08'0 0.0
2017-Dec-07 08:59N 26°04' W 080°08'0 0.0
2017-Dec-07 08:29N 26°04' W 080°08'0 0.0
2017-Dec-07 07:56N 26°04' W 080°08'0 0.0
2017-Dec-07 07:26N 26°04' W 080°08'0 0.0
2017-Dec-07 06:49N 26°04' W 080°08'0 0.0
2017-Dec-07 06:22N 26°04' W 080°08'0 0.0
2017-Dec-07 05:52N 26°04' W 080°08'0 0.0
2017-Dec-07 05:16N 26°04' W 080°08'0 0.0
2017-Dec-07 04:58N 26°04' W 080°08'0 0.0
2017-Dec-07 04:16N 26°04' W 080°08'0 0.0
2017-Dec-07 03:58N 26°04' W 080°08'0 0.0
2017-Dec-07 03:28N 26°04' W 080°08'0 0.0
2017-Dec-07 02:58N 26°04' W 080°08'0 0.0
2017-Dec-07 02:27N 26°04' W 080°08'0 0.0
2017-Dec-07 01:54N 26°04' W 080°08'0 0.0
2017-Dec-07 01:21N 26°04' W 080°08'0 0.0
2017-Dec-07 01:00N 26°04' W 080°08'0 0.0
2017-Dec-07 00:15N 26°04' W 080°08'0 0.0
2017-Dec-07 00:00N 26°04' W 080°08'0 0.0
2017-Dec-06 23:30N 26°04' W 080°08'0 0.0
2017-Dec-06 22:57N 26°04' W 080°08'4 6.5
2017-Dec-06 22:23N 25°60' W 080°08'4 9.0
2017-Dec-06 21:59N 26°04' W 080°08'0 0.0
2017-Dec-06 21:26N 26°04' W 080°08'0 0.0
2017-Dec-06 20:56N 26°04' W 080°08'  
2017-Dec-04 10:29N 26°04' W 080°08'0 0.0
2017-Dec-04 09:59N 26°04' W 080°08'0 0.0
2017-Dec-04 09:29N 26°04' W 080°08'0 0.0
2017-Dec-04 08:56N 26°04' W 080°08'0 0.0
2017-Dec-04 08:26N 26°04' W 080°08'0 0.0
2017-Dec-04 07:53N 26°04' W 080°08'0 0.0
2017-Dec-04 07:26N 26°04' W 080°08'0 0.0
2017-Dec-04 06:56N 26°04' W 080°08'0 0.0
2017-Dec-04 06:26N 26°04' W 080°08'0 0.0
2017-Dec-04 05:56N 26°04' W 080°08'0 0.0
2017-Dec-04 05:26N 26°04' W 080°08'0 0.0
2017-Dec-04 04:53N 26°04' W 080°08'0 0.0
2017-Dec-04 04:23N 26°04' W 080°08'0 0.0
2017-Dec-04 03:52N 26°04' W 080°08'0 0.0
2017-Dec-04 03:22N 26°04' W 080°08'0 0.0
2017-Dec-04 02:49N 26°04' W 080°08'0 0.0
2017-Dec-04 02:19N 26°04' W 080°08'0 0.0
2017-Dec-04 01:46N 26°04' W 080°08'0 0.0
2017-Dec-04 01:19N 26°04' W 080°08'0 0.0
2017-Dec-04 00:58N 26°04' W 080°08'0 0.0
2017-Dec-04 00:28N 26°04' W 080°08'0 0.0
2017-Dec-03 23:58N 26°04' W 080°08'0 0.0
2017-Dec-03 23:28N 26°04' W 080°08'0 0.0
2017-Dec-03 22:58N 26°04' W 080°08'0 0.0
2017-Dec-03 22:25N 26°04' W 080°08'0 0.0
2017-Dec-03 21:58N 26°04' W 080°08'0 0.0
2017-Dec-03 21:28N 26°04' W 080°08'0 0.0
2017-Dec-03 20:58N 26°04' W 080°08'0 0.0
2017-Dec-03 20:27N 26°04' W 080°08'0 0.0
2017-Dec-03 19:57N 26°04' W 080°08'0 0.0
2017-Dec-03 19:24N 26°04' W 080°08'0 0.0
2017-Dec-03 18:57N 26°04' W 080°08'0 0.0
2017-Dec-03 18:21N 26°04' W 080°08'0 0.0
2017-Dec-03 17:54N 26°04' W 080°08'0 0.0
2017-Dec-03 17:21N 26°04' W 080°08'0 0.0
2017-Dec-03 16:54N 26°04' W 080°08'0 0.0
2017-Dec-03 16:24N 26°04' W 080°08'0 0.0
2017-Dec-03 15:54N 26°04' W 080°08'0 0.0
2017-Dec-03 15:21N 26°04' W 080°08'0 0.0
2017-Dec-03 14:54N 26°04' W 080°08'0 0.0
2017-Dec-03 14:24N 26°04' W 080°08'0 0.0
2017-Dec-03 13:54N 26°04' W 080°08'0 0.0
2017-Dec-03 13:24N 26°04' W 080°08'0 0.0
2017-Dec-03 12:54N 26°04' W 080°08'0 0.0
2017-Dec-03 12:24N 26°04' W 080°08'0 0.0
2017-Dec-03 11:54N 26°04' W 080°08'0 0.0
2017-Dec-03 11:21N 26°04' W 080°08'0 0.0
2017-Dec-03 10:47N 26°04' W 080°08'0 0.0
2017-Dec-03 10:20N 26°04' W 080°08'0 0.0
2017-Dec-03 09:47N 26°04' W 080°08'0 0.0
2017-Dec-03 09:29N 26°04' W 080°08'0 0.0
2017-Dec-03 08:59N 26°04' W 080°08'0 0.0
2017-Dec-03 08:29N 26°04' W 080°08'0 0.0
2017-Dec-03 07:47N 26°04' W 080°08'0 0.0
2017-Dec-03 07:29N 26°04' W 080°08'0 0.0
2017-Dec-03 06:59N 26°04' W 080°08'0 0.0
2017-Dec-03 06:29N 26°04' W 080°08'0 0.0
2017-Dec-03 05:59N 26°04' W 080°08'0 0.0
2017-Dec-03 05:29N 26°04' W 080°08'0 0.0
2017-Dec-03 04:59N 26°04' W 080°08'0 0.0
2017-Dec-03 04:29N 26°04' W 080°08'0 0.0
2017-Dec-03 03:59N 26°04' W 080°08'0 0.0
2017-Dec-03 03:29N 26°04' W 080°08'0 0.0
2017-Dec-03 02:59N 26°04' W 080°08'0 0.0
2017-Dec-03 02:29N 26°04' W 080°08'0 0.0
2017-Dec-03 01:59N 26°04' W 080°08'0 0.0
2017-Dec-03 01:28N 26°04' W 080°08'0 0.0
2017-Dec-03 00:55N 26°04' W 080°08'0 0.0
2017-Dec-03 00:28N 26°04' W 080°08'0 0.0
2017-Dec-02 23:58N 26°04' W 080°08'2 4.2
2017-Dec-02 23:25N 26°06' W 080°08'2 4.1
2017-Dec-02 22:52N 26°04' W 080°08'0 0.0
2017-Dec-02 22:28N 26°04' W 080°08'0 0.0
2017-Dec-02 21:40N 26°04' W 080°08'0 0.0
2017-Dec-02 21:25N 26°04' W 080°08'0 0.0
2017-Dec-02 20:55N 26°04' W 080°08'0 0.0
2017-Dec-02 20:25N 26°04' W 080°08'0 0.0
2017-Dec-02 19:55N 26°04' W 080°08'0 0.0
2017-Dec-02 19:25N 26°04' W 080°08'0 0.0
2017-Dec-02 18:55N 26°04' W 080°08'0 0.0
2017-Dec-02 18:22N 26°04' W 080°08'0 0.0
2017-Dec-02 17:52N 26°04' W 080°08'0 0.0
2017-Dec-02 17:07N 26°04' W 080°08'0 0.0
2017-Dec-02 16:52N 26°04' W 080°08'0 0.0
2017-Dec-02 16:07N 26°04' W 080°08'0 0.0
2017-Dec-02 15:49N 26°04' W 080°08'0 0.0
2017-Dec-02 15:21N 26°04' W 080°08'0 0.0
2017-Dec-02 14:51N 26°04' W 080°08'0 0.0
2017-Dec-02 14:21N 26°04' W 080°08'0 0.0
2017-Dec-02 13:48N 26°04' W 080°08'0 0.0
2017-Dec-02 13:21N 26°04' W 080°08'0 0.0
2017-Dec-02 13:00N 26°04' W 080°08'0 0.0
2017-Dec-02 12:21N 26°04' W 080°08'0 0.0
2017-Dec-02 11:51N 26°04' W 080°08'0 0.0
2017-Dec-02 11:15N 26°04' W 080°08'0 0.0
2017-Dec-02 11:00N 26°04' W 080°08'0 0.0
2017-Dec-02 10:30N 26°04' W 080°08'0 0.0
2017-Dec-02 10:00N 26°04' W 080°08'0 0.0
2017-Dec-02 09:30N 26°04' W 080°08'0 0.0
2017-Dec-02 09:00N 26°04' W 080°08'0 0.0
2017-Dec-02 08:30N 26°04' W 080°08'0 0.0
2017-Dec-02 07:57N 26°04' W 080°08'0 0.0
2017-Dec-02 07:30N 26°04' W 080°08'0 0.0
2017-Dec-02 07:00N 26°04' W 080°08'0 0.0
2017-Dec-02 06:30N 26°04' W 080°08'0 0.0
2017-Dec-02 05:56N 26°04' W 080°08'0 0.0
2017-Dec-02 05:29N 26°04' W 080°08'0 0.0
2017-Dec-02 04:56N 26°04' W 080°08'0 0.0
2017-Dec-02 04:29N 26°04' W 080°08'0 0.0
2017-Dec-02 03:59N 26°04' W 080°08'0 0.0
2017-Dec-02 03:26N 26°04' W 080°08'0 0.0
2017-Dec-02 02:56N 26°04' W 080°08'0 0.0
2017-Dec-02 02:26N 26°04' W 080°08'0 0.0
2017-Dec-02 01:56N 26°04' W 080°08'0 0.0
2017-Dec-02 01:26N 26°04' W 080°08'0 0.0
2017-Dec-02 00:56N 26°04' W 080°08'0 0.0
2017-Dec-02 00:26N 26°04' W 080°08'0 0.0
2017-Dec-01 23:53N 26°04' W 080°08'0 0.0
2017-Dec-01 23:23N 26°04' W 080°08'0 0.0
2017-Dec-01 22:53N 26°04' W 080°08'0 0.0
2017-Dec-01 22:23N 26°04' W 080°08'0 0.0
2017-Dec-01 21:53N 26°04' W 080°08'0 0.0
2017-Dec-01 21:22N 26°04' W 080°08'0 0.0
2017-Dec-01 20:52N 26°04' W 080°08'0 0.0
2017-Dec-01 20:19N 26°04' W 080°08'0 0.0
2017-Dec-01 19:49N 26°04' W 080°08'0 0.0
2017-Dec-01 19:19N 26°04' W 080°08'0 0.0
2017-Dec-01 18:46N 26°04' W 080°08'0 0.0
2017-Dec-01 18:16N 26°04' W 080°08'0 0.0
2017-Dec-01 17:58N 26°04' W 080°08'0 0.0
2017-Dec-01 17:28N 26°04' W 080°08'0 0.0
2017-Dec-01 16:58N 26°04' W 080°08'0 0.0
2017-Dec-01 16:28N 26°04' W 080°08'0 0.0
2017-Dec-01 15:46N 26°04' W 080°08'0 0.0
2017-Dec-01 15:28N 26°04' W 080°08'0 0.0
2017-Dec-01 14:58N 26°04' W 080°08'  

Dump ship's entire track history